createdAt,value
2018-07-13T00:01:46.781Z,11.29
2018-07-13T00:04:14.512Z,11.22
2018-07-13T00:06:42.248Z,11.19
2018-07-13T00:09:11.480Z,11.20
2018-07-13T00:11:39.773Z,11.20
2018-07-13T00:14:25.454Z,11.21
2018-07-13T00:16:55.320Z,11.22
2018-07-13T00:19:23.510Z,11.25
2018-07-13T00:21:51.363Z,11.31
2018-07-13T00:24:19.088Z,11.34
2018-07-13T00:26:46.915Z,11.38
2018-07-13T00:29:14.619Z,11.40
2018-07-13T00:31:42.983Z,11.40
2018-07-13T00:34:10.803Z,11.43
2018-07-13T00:36:38.545Z,11.46
2018-07-13T00:39:07.903Z,11.49
2018-07-13T00:41:35.631Z,11.51
2018-07-13T00:44:03.772Z,11.48
2018-07-13T00:46:31.419Z,11.47
2018-07-13T00:48:59.164Z,11.46
2018-07-13T00:51:26.789Z,11.45
2018-07-13T00:53:54.444Z,11.40
2018-07-13T00:56:22.095Z,11.31
2018-07-13T00:58:49.915Z,11.24
2018-07-13T01:01:17.603Z,11.22
2018-07-13T01:03:45.317Z,11.26
2018-07-13T01:06:12.977Z,11.25
2018-07-13T01:08:40.715Z,11.23
2018-07-13T01:11:08.405Z,11.23
2018-07-13T01:13:36.122Z,11.23
2018-07-13T01:16:04.237Z,11.26
2018-07-13T01:18:31.982Z,11.28
2018-07-13T01:20:59.705Z,11.32
2018-07-13T01:23:27.385Z,11.36
2018-07-13T01:25:55.082Z,11.41
2018-07-13T01:28:22.757Z,11.43
2018-07-13T01:30:50.498Z,11.38
2018-07-13T01:33:18.185Z,11.34
2018-07-13T01:35:45.871Z,11.32
2018-07-13T01:38:13.562Z,11.30
2018-07-13T01:40:41.298Z,11.24
2018-07-13T01:43:08.961Z,11.25
2018-07-13T01:45:36.747Z,11.30
2018-07-13T01:48:04.536Z,11.37
2018-07-13T01:50:32.402Z,11.41
2018-07-13T01:53:00.101Z,11.48
2018-07-13T01:55:27.827Z,11.51
2018-07-13T01:57:55.559Z,11.50
2018-07-13T02:00:23.399Z,11.47
2018-07-13T02:02:51.112Z,11.45
2018-07-13T02:05:18.789Z,11.47
2018-07-13T02:07:46.503Z,11.45
2018-07-13T02:10:14.216Z,11.39
2018-07-13T02:12:41.943Z,11.39
2018-07-13T02:15:09.635Z,11.40
2018-07-13T02:17:37.393Z,11.42
2018-07-13T02:20:05.101Z,11.43
2018-07-13T02:22:32.815Z,11.43
2018-07-13T02:25:00.495Z,11.46
2018-07-13T02:27:28.239Z,11.51
2018-07-13T02:29:55.958Z,11.53
2018-07-13T02:32:23.655Z,11.53
2018-07-13T02:34:51.404Z,11.52
2018-07-13T02:37:19.108Z,11.52
2018-07-13T02:39:46.768Z,11.55
2018-07-13T02:42:14.467Z,11.62
2018-07-13T02:44:42.137Z,11.63
2018-07-13T02:47:09.912Z,11.71
2018-07-13T02:49:37.580Z,11.77
2018-07-13T02:52:05.242Z,11.78
2018-07-13T02:54:32.911Z,11.81
2018-07-13T02:57:00.601Z,11.85
2018-07-13T02:59:28.244Z,11.87
2018-07-13T03:01:55.957Z,11.90
2018-07-13T03:04:23.627Z,11.93
2018-07-13T03:06:51.306Z,11.97
2018-07-13T03:09:18.974Z,11.99
2018-07-13T03:11:46.656Z,12.03
2018-07-13T03:14:14.344Z,12.11
2018-07-13T03:16:42.015Z,12.20
2018-07-13T03:19:09.627Z,12.30
2018-07-13T03:21:37.322Z,12.40
2018-07-13T03:24:05.018Z,12.50
2018-07-13T03:26:32.683Z,12.61
2018-07-13T03:29:01.233Z,12.76
2018-07-13T03:31:28.932Z,12.94
2018-07-13T03:33:56.636Z,13.12
2018-07-13T03:36:24.315Z,13.28
2018-07-13T03:38:51.997Z,13.40
2018-07-13T03:41:19.710Z,13.52
2018-07-13T03:43:47.434Z,13.65
2018-07-13T03:46:15.111Z,13.80
2018-07-13T03:48:42.800Z,13.94
2018-07-13T03:51:10.526Z,14.05
2018-07-13T03:53:38.220Z,14.11
2018-07-13T03:56:06.106Z,14.14
2018-07-13T03:58:33.941Z,14.19
2018-07-13T04:01:01.764Z,14.29
2018-07-13T04:03:29.398Z,14.38
2018-07-13T04:05:57.114Z,14.60
2018-07-13T04:08:24.801Z,14.84
2018-07-13T04:10:52.601Z,15.10
2018-07-13T04:13:20.292Z,15.41
2018-07-13T04:15:47.978Z,15.71
2018-07-13T04:18:21.710Z,16.04
2018-07-13T04:20:50.157Z,16.21
2018-07-13T04:23:18.131Z,16.28
2018-07-13T04:25:45.874Z,16.30
2018-07-13T04:28:13.716Z,16.38
2018-07-13T04:30:41.995Z,16.50
2018-07-13T04:33:09.688Z,16.55
2018-07-13T04:35:37.369Z,16.77
2018-07-13T04:38:05.130Z,16.99
2018-07-13T04:40:32.807Z,17.67
2018-07-13T04:43:00.621Z,18.29
2018-07-13T04:45:28.424Z,19.05
2018-07-13T04:47:56.309Z,19.80
2018-07-13T04:50:24.144Z,20.34
2018-07-13T04:52:52.055Z,20.67
2018-07-13T04:55:19.909Z,21.01
2018-07-13T04:57:48.152Z,20.72
2018-07-13T05:00:16.060Z,20.35
2018-07-13T05:02:43.938Z,20.99
2018-07-13T05:05:11.924Z,21.17
2018-07-13T05:07:40.709Z,20.90
2018-07-13T05:10:08.493Z,20.73
2018-07-13T05:12:36.543Z,20.76
2018-07-13T05:15:04.906Z,21.12
2018-07-13T05:17:32.632Z,22.02
2018-07-13T05:20:00.397Z,22.66
2018-07-13T05:22:28.237Z,23.12
2018-07-13T05:24:56.041Z,23.30
2018-07-13T05:27:23.888Z,23.64
2018-07-13T05:29:51.770Z,24.14
2018-07-13T05:32:19.595Z,24.57
2018-07-13T05:34:47.396Z,24.86
2018-07-13T05:37:15.165Z,25.37
2018-07-13T05:39:42.991Z,25.64
2018-07-13T05:42:10.883Z,25.96
2018-07-13T05:44:38.887Z,25.91
2018-07-13T05:47:07.379Z,26.08
2018-07-13T05:49:35.261Z,26.39
2018-07-13T05:52:03.129Z,26.59
2018-07-13T05:54:30.980Z,26.89
2018-07-13T05:56:58.878Z,26.92
2018-07-13T05:59:26.888Z,27.17
2018-07-13T06:01:54.849Z,27.26
2018-07-13T06:04:22.862Z,27.57
2018-07-13T06:06:51.373Z,28.04
2018-07-13T06:09:19.220Z,28.28
2018-07-13T06:11:47.136Z,28.42
2018-07-13T06:14:15.210Z,28.13
2018-07-13T06:16:42.866Z,28.00
2018-07-13T06:19:10.582Z,28.05
2018-07-13T06:21:38.256Z,28.29
2018-07-13T06:24:07.296Z,28.55
2018-07-13T06:26:35.070Z,28.75
2018-07-13T06:29:02.863Z,28.88
2018-07-13T06:31:30.569Z,28.80
2018-07-13T06:33:58.334Z,28.69
2018-07-13T06:36:26.144Z,29.25
2018-07-13T06:38:53.981Z,29.54
2018-07-13T06:41:22.674Z,29.72
2018-07-13T06:43:50.529Z,30.04
2018-07-13T06:46:18.266Z,29.84
2018-07-13T06:48:46.047Z,29.56
2018-07-13T06:51:13.887Z,29.85
2018-07-13T06:53:41.665Z,29.83
2018-07-13T06:56:09.424Z,29.85
2018-07-13T06:58:48.311Z,29.49
2018-07-13T07:01:16.059Z,29.66
2018-07-13T07:04:51.701Z,29.79
2018-07-13T07:07:22.048Z,30.36
2018-07-13T07:09:52.439Z,29.61
2018-07-13T07:12:59.821Z,29.57
2018-07-13T07:15:27.637Z,29.95
2018-07-13T07:17:55.552Z,30.25
2018-07-13T07:20:23.324Z,29.83
2018-07-13T07:22:51.170Z,29.52
2018-07-13T07:25:18.935Z,29.64
2018-07-13T07:27:46.677Z,29.99
2018-07-13T07:30:14.555Z,30.28
2018-07-13T07:32:42.880Z,30.02
2018-07-13T07:35:11.038Z,29.98
2018-07-13T07:37:38.787Z,29.96
2018-07-13T07:40:06.784Z,30.41
2018-07-13T07:42:34.586Z,30.76
2018-07-13T07:45:02.626Z,30.91
2018-07-13T07:47:30.382Z,30.64
2018-07-13T07:49:58.328Z,30.70
2018-07-13T07:52:26.068Z,30.51
2018-07-13T07:54:53.863Z,30.72
2018-07-13T07:57:21.660Z,30.92
2018-07-13T07:59:49.357Z,30.96
2018-07-13T08:02:17.249Z,30.55
2018-07-13T08:04:45.065Z,30.86
2018-07-13T08:07:13.413Z,31.22
2018-07-13T08:09:40.824Z,31.45
2018-07-13T08:12:08.717Z,31.51
2018-07-13T08:14:36.561Z,31.74
2018-07-13T08:17:04.267Z,31.89
2018-07-13T08:19:32.014Z,31.57
2018-07-13T08:22:05.243Z,31.53
2018-07-13T08:24:33.142Z,31.38
2018-07-13T08:27:03.917Z,31.06
2018-07-13T08:29:39.473Z,31.12
2018-07-13T08:32:07.267Z,31.22
2018-07-13T08:34:34.972Z,31.33
2018-07-13T08:37:02.664Z,31.35
2018-07-13T08:39:30.445Z,31.63
2018-07-13T08:41:58.331Z,31.52
2018-07-13T08:44:26.177Z,31.74
2018-07-13T08:46:53.921Z,31.62
2018-07-13T08:49:21.638Z,31.31
2018-07-13T08:51:49.581Z,31.43
2018-07-13T08:54:17.459Z,31.70
2018-07-13T08:56:45.322Z,31.93
2018-07-13T08:59:13.292Z,32.07
2018-07-13T09:01:41.042Z,31.19
2018-07-13T09:04:08.776Z,31.13
2018-07-13T09:06:37.207Z,31.21
2018-07-13T09:09:10.516Z,31.49
2018-07-13T09:11:38.410Z,31.94
2018-07-13T09:14:06.344Z,32.13
2018-07-13T09:16:34.171Z,32.14
2018-07-13T09:19:02.101Z,32.10
2018-07-13T09:21:29.969Z,32.26
2018-07-13T09:23:57.720Z,32.49
2018-07-13T09:26:25.643Z,32.43
2018-07-13T09:28:53.358Z,32.00
2018-07-13T09:31:21.207Z,31.57
2018-07-13T09:33:49.007Z,31.85
2018-07-13T09:36:16.837Z,32.11
2018-07-13T09:38:44.634Z,32.23
2018-07-13T09:41:12.512Z,32.45
2018-07-13T09:43:40.406Z,32.31
2018-07-13T09:46:08.276Z,31.97
2018-07-13T09:48:36.060Z,31.72
2018-07-13T09:51:03.836Z,31.80
2018-07-13T09:53:31.781Z,31.73
2018-07-13T09:55:59.677Z,32.09
2018-07-13T09:58:32.631Z,32.22
2018-07-13T10:01:06.145Z,31.93
2018-07-13T10:03:33.884Z,31.69
2018-07-13T10:06:02.061Z,31.78
2018-07-13T10:08:30.102Z,31.75
2018-07-13T10:10:57.926Z,31.50
2018-07-13T10:13:26.059Z,31.40
2018-07-13T10:15:54.488Z,31.31
2018-07-13T10:18:22.271Z,31.12
2018-07-13T10:20:50.603Z,31.20
2018-07-13T10:23:18.776Z,31.25
2018-07-13T10:25:47.476Z,31.57
2018-07-13T10:28:15.365Z,31.88
2018-07-13T10:30:43.270Z,31.78
2018-07-13T10:33:12.069Z,31.44
2018-07-13T10:35:40.885Z,31.52
2018-07-13T10:38:08.630Z,31.36
2018-07-13T10:40:36.397Z,31.07
2018-07-13T10:43:04.588Z,30.87
2018-07-13T10:45:32.911Z,30.93
2018-07-13T10:48:00.765Z,31.01
2018-07-13T10:50:28.504Z,31.12
2018-07-13T10:52:56.297Z,30.69
2018-07-13T10:55:24.126Z,30.62
2018-07-13T10:57:51.912Z,30.48
2018-07-13T11:00:19.675Z,30.36
2018-07-13T11:02:47.520Z,30.33
2018-07-13T11:05:15.354Z,30.17
2018-07-13T11:07:43.247Z,30.22
2018-07-13T11:10:10.961Z,30.26
2018-07-13T11:12:38.945Z,30.47
2018-07-13T11:15:06.668Z,30.19
2018-07-13T11:17:34.381Z,30.20
2018-07-13T11:20:02.149Z,30.25
2018-07-13T11:22:29.943Z,29.95
2018-07-13T11:24:57.611Z,29.87
2018-07-13T11:27:25.294Z,30.13
2018-07-13T11:29:53.021Z,30.28
2018-07-13T11:32:20.779Z,30.55
2018-07-13T11:34:48.572Z,30.53
2018-07-13T11:37:16.332Z,30.47
2018-07-13T11:39:43.997Z,30.66
2018-07-13T11:42:11.802Z,30.48
2018-07-13T11:44:39.612Z,30.59
2018-07-13T11:47:07.355Z,30.56
2018-07-13T11:49:35.025Z,30.14
2018-07-13T11:52:02.748Z,30.37
2018-07-13T11:54:30.512Z,30.47
2018-07-13T11:56:58.210Z,30.43
2018-07-13T11:59:25.953Z,30.46
2018-07-13T12:01:53.682Z,30.22
2018-07-13T12:04:21.403Z,30.11
2018-07-13T12:06:49.129Z,29.55
2018-07-13T12:09:16.875Z,29.96
2018-07-13T12:11:44.557Z,30.15
2018-07-13T12:14:14.532Z,30.28
2018-07-13T12:16:44.812Z,30.17
2018-07-13T12:19:12.524Z,30.40
2018-07-13T12:21:40.233Z,30.25
2018-07-13T12:24:08.038Z,29.97
2018-07-13T12:26:35.753Z,29.81
2018-07-13T12:29:03.480Z,29.63
2018-07-13T12:31:31.214Z,28.52
2018-07-13T12:33:58.931Z,28.30
2018-07-13T12:36:26.628Z,28.05
2018-07-13T12:38:54.429Z,27.96
2018-07-13T12:41:22.184Z,28.03
2018-07-13T12:43:50.171Z,27.86
2018-07-13T12:46:18.817Z,27.51
2018-07-13T12:48:46.536Z,27.28
2018-07-13T12:51:14.235Z,27.26
2018-07-13T12:53:41.960Z,27.38
2018-07-13T12:56:09.627Z,27.40
2018-07-13T12:58:37.317Z,27.65
2018-07-13T13:01:05.083Z,27.81
2018-07-13T13:03:32.766Z,28.00
2018-07-13T13:06:00.441Z,28.43
2018-07-13T13:08:28.160Z,28.30
2018-07-13T13:10:55.892Z,28.10
2018-07-13T13:13:23.634Z,28.17
2018-07-13T13:15:51.363Z,28.00
2018-07-13T13:18:19.115Z,27.99
2018-07-13T13:20:46.908Z,27.97
2018-07-13T13:23:14.731Z,27.96
2018-07-13T13:25:42.454Z,27.94
2018-07-13T13:28:10.253Z,28.10
2018-07-13T13:30:37.976Z,28.18
2018-07-13T13:33:05.706Z,28.06
2018-07-13T13:35:33.507Z,28.10
2018-07-13T13:38:01.244Z,27.96
2018-07-13T13:40:28.948Z,28.15
2018-07-13T13:42:56.710Z,28.16
2018-07-13T13:45:24.444Z,28.33
2018-07-13T13:47:52.129Z,28.43
2018-07-13T13:50:19.852Z,28.41
2018-07-13T13:52:47.584Z,28.22
2018-07-13T13:55:15.727Z,28.28
2018-07-13T13:57:43.436Z,28.34
2018-07-13T14:00:11.250Z,28.11
2018-07-13T14:02:39.046Z,27.61
2018-07-13T14:05:07.429Z,27.85
2018-07-13T14:07:35.183Z,28.17
2018-07-13T14:10:02.933Z,27.89
2018-07-13T14:12:30.652Z,27.50
2018-07-13T14:14:58.419Z,27.47
2018-07-13T14:17:26.206Z,27.51
2018-07-13T14:19:53.906Z,27.54
2018-07-13T14:22:21.660Z,27.19
2018-07-13T14:24:49.423Z,27.13
2018-07-13T14:27:18.122Z,27.15
2018-07-13T14:29:45.861Z,27.21
2018-07-13T14:32:13.639Z,27.24
2018-07-13T14:34:41.549Z,27.29
2018-07-13T14:37:09.314Z,26.86
2018-07-13T14:39:37.033Z,26.63
2018-07-13T14:42:04.779Z,26.67
2018-07-13T14:44:32.547Z,26.75
2018-07-13T14:47:00.343Z,26.66
2018-07-13T14:49:28.089Z,26.49
2018-07-13T14:51:55.888Z,26.41
2018-07-13T14:54:23.716Z,26.29
2018-07-13T14:56:51.449Z,26.24
2018-07-13T14:59:19.252Z,25.94
2018-07-13T15:01:47.650Z,25.91
2018-07-13T15:04:15.468Z,25.83
2018-07-13T15:06:43.515Z,25.70
2018-07-13T15:09:11.153Z,25.43
2018-07-13T15:11:38.871Z,25.30
2018-07-13T15:14:06.716Z,25.30
2018-07-13T15:16:34.389Z,25.23
2018-07-13T15:19:02.458Z,25.12
2018-07-13T15:21:30.184Z,24.93
2018-07-13T15:23:57.888Z,24.78
2018-07-13T15:26:25.604Z,24.67
2018-07-13T15:28:53.333Z,24.53
2018-07-13T15:31:22.050Z,24.45
2018-07-13T15:33:49.786Z,24.27
2018-07-13T15:36:17.532Z,24.15
2018-07-13T15:38:45.216Z,24.07
2018-07-13T15:41:12.957Z,24.00
2018-07-13T15:43:40.680Z,23.92
2018-07-13T15:46:08.440Z,23.85
2018-07-13T15:48:36.195Z,23.80
2018-07-13T15:51:03.940Z,23.73
2018-07-13T15:53:31.756Z,23.71
2018-07-13T15:55:59.680Z,23.68
2018-07-13T15:58:28.453Z,23.60
2018-07-13T16:00:56.254Z,23.52
2018-07-13T16:03:24.129Z,23.43
2018-07-13T16:05:52.154Z,23.32
2018-07-13T16:08:20.123Z,23.25
2018-07-13T16:10:47.979Z,23.14
2018-07-13T16:13:15.641Z,23.08
2018-07-13T16:15:43.345Z,23.04
2018-07-13T16:18:11.088Z,23.00
2018-07-13T16:20:38.868Z,22.92
2018-07-13T16:23:06.581Z,22.92
2018-07-13T16:25:34.325Z,22.84
2018-07-13T16:28:02.191Z,22.77
2018-07-13T16:30:29.857Z,22.76
2018-07-13T16:32:57.519Z,22.70
2018-07-13T16:35:25.303Z,22.63
2018-07-13T16:37:53.324Z,22.55
2018-07-13T16:40:21.085Z,22.52
2018-07-13T16:42:49.198Z,22.47
2018-07-13T16:45:17.738Z,22.42
2018-07-13T16:47:45.401Z,22.39
2018-07-13T16:50:13.246Z,22.35
2018-07-13T16:52:40.996Z,22.27
2018-07-13T16:55:08.753Z,22.18
2018-07-13T16:57:36.521Z,22.12
2018-07-13T17:00:04.290Z,22.09
2018-07-13T17:02:32.537Z,22.07
2018-07-13T17:05:00.372Z,22.01
2018-07-13T17:07:28.088Z,21.99
2018-07-13T17:09:55.776Z,21.95
2018-07-13T17:12:24.473Z,21.89
2018-07-13T17:14:53.114Z,21.86
2018-07-13T17:17:20.925Z,21.83
2018-07-13T17:19:48.903Z,21.78
2018-07-13T17:22:16.614Z,21.74
2018-07-13T17:24:44.459Z,21.71
2018-07-13T17:27:14.883Z,21.64
2018-07-13T17:29:42.653Z,21.54
2018-07-13T17:32:10.369Z,21.51
2018-07-13T17:34:38.070Z,21.44
2018-07-13T17:37:05.935Z,21.38
2018-07-13T17:39:33.640Z,21.35
2018-07-13T17:42:01.370Z,21.29
2018-07-13T17:44:29.206Z,21.25
2018-07-13T17:46:56.958Z,21.20
2018-07-13T17:49:24.656Z,21.11
2018-07-13T17:51:52.454Z,21.04
2018-07-13T17:54:20.242Z,20.99
2018-07-13T17:56:51.794Z,20.91
2018-07-13T17:59:19.529Z,20.85
2018-07-13T18:01:47.182Z,20.80
2018-07-13T18:04:14.867Z,20.73
2018-07-13T18:06:42.539Z,20.67
2018-07-13T18:09:10.368Z,20.65
2018-07-13T18:11:38.137Z,20.59
2018-07-13T18:14:05.941Z,20.53
2018-07-13T18:16:33.658Z,20.51
2018-07-13T18:19:01.355Z,20.47
2018-07-13T18:21:29.128Z,20.41
2018-07-13T18:23:56.837Z,20.32
2018-07-13T18:26:24.565Z,20.25
2018-07-13T18:28:52.261Z,20.15
2018-07-13T18:31:20.260Z,20.08
2018-07-13T18:33:47.994Z,20.01
2018-07-13T18:36:15.732Z,19.96
2018-07-13T18:38:43.716Z,19.93
2018-07-13T18:41:12.043Z,19.90
2018-07-13T18:43:39.726Z,19.86
2018-07-13T18:46:07.657Z,19.82
2018-07-13T18:48:35.451Z,19.79
2018-07-13T18:51:03.196Z,19.74
2018-07-13T18:53:31.731Z,19.71
2018-07-13T18:55:59.476Z,19.69
2018-07-13T18:58:27.265Z,19.61
2018-07-13T19:00:55.021Z,19.56
2018-07-13T19:03:22.714Z,19.53
2018-07-13T19:05:50.413Z,19.48
2018-07-13T19:08:18.169Z,19.39
2018-07-13T19:10:45.932Z,19.29
2018-07-13T19:13:13.616Z,19.23
2018-07-13T19:15:41.242Z,19.18
2018-07-13T19:18:09.112Z,19.14
2018-07-13T19:20:36.841Z,19.12
2018-07-13T19:23:04.749Z,19.09
2018-07-13T19:25:32.521Z,19.07
2018-07-13T19:28:00.273Z,19.06
2018-07-13T19:30:28.048Z,19.07
2018-07-13T19:32:55.761Z,19.08
2018-07-13T19:35:23.428Z,19.10
2018-07-13T19:37:51.521Z,19.09
2018-07-13T19:40:19.257Z,19.09
2018-07-13T19:42:46.980Z,19.07
2018-07-13T19:45:14.837Z,19.05
2018-07-13T19:47:43.122Z,19.04
2018-07-13T19:50:10.821Z,19.01
2018-07-13T19:52:38.559Z,18.99
2018-07-13T19:55:06.311Z,18.95
2018-07-13T19:57:34.029Z,18.89
2018-07-13T20:00:01.749Z,18.81
2018-07-13T20:02:29.405Z,18.73
2018-07-13T20:04:57.114Z,18.66
2018-07-13T20:07:24.857Z,18.57
2018-07-13T20:09:53.166Z,18.48
2018-07-13T20:12:20.841Z,18.36
2018-07-13T20:14:48.535Z,18.11
2018-07-13T20:17:16.372Z,17.92
2018-07-13T20:19:44.454Z,17.82
2018-07-13T20:22:12.196Z,17.78
2018-07-13T20:24:39.952Z,17.70
2018-07-13T20:27:07.681Z,17.61
2018-07-13T20:29:35.391Z,17.51
2018-07-13T20:32:03.201Z,17.42
2018-07-13T20:34:30.915Z,17.34
2018-07-13T20:36:58.628Z,17.25
2018-07-13T20:39:26.396Z,17.19
2018-07-13T20:41:54.047Z,17.10
2018-07-13T20:44:21.725Z,17.00
2018-07-13T20:46:49.448Z,16.89
2018-07-13T20:49:17.138Z,16.82
2018-07-13T20:51:45.020Z,16.76
2018-07-13T20:54:12.793Z,16.72
2018-07-13T20:56:40.552Z,16.64
2018-07-13T20:59:08.262Z,16.54
2018-07-13T21:01:36.436Z,16.48
2018-07-13T21:04:04.998Z,16.45
2018-07-13T21:06:32.660Z,16.35
2018-07-13T21:09:00.445Z,16.24
2018-07-13T21:11:28.121Z,16.16
2018-07-13T21:13:55.746Z,16.06
2018-07-13T21:16:23.519Z,16.00
2018-07-13T21:18:51.128Z,15.92
2018-07-13T21:21:18.820Z,15.86
2018-07-13T21:23:46.536Z,15.84
2018-07-13T21:26:14.393Z,15.84
2018-07-13T21:28:42.176Z,15.81
2018-07-13T21:31:09.905Z,15.75
2018-07-13T21:33:37.685Z,15.71
2018-07-13T21:36:05.616Z,15.66
2018-07-13T21:38:33.293Z,15.63
2018-07-13T21:41:00.997Z,15.53
2018-07-13T21:43:28.651Z,15.44
2018-07-13T21:45:56.262Z,15.39
2018-07-13T21:48:24.651Z,15.36
2018-07-13T21:50:52.256Z,15.30
2018-07-13T21:53:19.921Z,15.23
2018-07-13T21:55:47.662Z,15.18
2018-07-13T21:58:15.363Z,15.11
2018-07-13T22:00:43.313Z,15.09
2018-07-13T22:03:10.995Z,14.99
2018-07-13T22:05:38.756Z,14.94
2018-07-13T22:08:06.483Z,14.87
2018-07-13T22:10:34.191Z,14.82
2018-07-13T22:13:01.898Z,14.75
2018-07-13T22:15:29.635Z,14.63
2018-07-13T22:17:57.329Z,14.54
2018-07-13T22:20:25.033Z,14.45
2018-07-13T22:22:52.795Z,14.41
2018-07-13T22:25:20.479Z,14.32
2018-07-13T22:27:48.294Z,14.19
2018-07-13T22:30:15.961Z,14.08
2018-07-13T22:32:43.598Z,14.02
2018-07-13T22:35:11.269Z,13.93
2018-07-13T22:37:38.952Z,13.86
2018-07-13T22:40:06.617Z,13.78
2018-07-13T22:42:35.165Z,13.74
2018-07-13T22:45:02.803Z,13.68
2018-07-13T22:47:30.446Z,13.56
2018-07-13T22:49:58.112Z,13.46
2018-07-13T22:52:25.801Z,13.37
2018-07-13T22:54:53.500Z,13.35
2018-07-13T22:57:21.124Z,13.35
2018-07-13T22:59:48.835Z,13.31
2018-07-13T23:02:16.529Z,13.23
2018-07-13T23:04:44.207Z,13.14
2018-07-13T23:07:11.897Z,13.06
2018-07-13T23:09:39.620Z,13.04
2018-07-13T23:12:07.415Z,12.98
2018-07-13T23:14:35.059Z,12.93
2018-07-13T23:17:02.753Z,12.84
2018-07-13T23:19:30.415Z,12.75
2018-07-13T23:21:58.070Z,12.67
2018-07-13T23:24:25.782Z,12.71
2018-07-13T23:26:53.485Z,12.59
2018-07-13T23:29:21.209Z,12.52
2018-07-13T23:31:48.871Z,12.44
2018-07-13T23:34:16.520Z,12.33
2018-07-13T23:36:44.212Z,12.24
2018-07-13T23:39:11.831Z,12.19
2018-07-13T23:41:39.550Z,12.17
2018-07-13T23:44:07.350Z,12.12
2018-07-13T23:46:35.029Z,12.04
2018-07-13T23:49:02.678Z,11.94
2018-07-13T23:51:30.320Z,11.86
2018-07-13T23:53:57.991Z,11.81
2018-07-13T23:56:25.728Z,11.78
2018-07-13T23:58:53.448Z,11.70
